Time;durP1;ratioP1;P1;durP2;ratioP2;P2;SDS_P1;SDS_P2;PMS_P1;PMS_P2;Temp;Humidity;BMP_temperature;BMP_pressure;BME280_temperature;BME280_humidity;BME280_pressure;Samples;Min_cycle;Max_cycle;Signal;HPM_P1;HPM_P2
2022/11/15 00:00:55;;;;;;;59.73;29.47;;;;;;;4.90;100.00;100822.75;4982664;28;20222;-79
2022/11/15 00:03:24;;;;;;;59.47;29.50;;;;;;;4.87;100.00;100816.59;4981954;28;20069;-79
2022/11/15 00:05:51;;;;;;;64.53;31.33;;;;;;;4.82;100.00;100819.22;5012600;28;20618;-79
2022/11/15 00:08:18;;;;;;;60.00;29.13;;;;;;;4.78;100.00;100818.31;4982650;28;20045;-81
2022/11/15 00:10:58;;;;;;;67.43;31.83;;;;;;;4.76;100.00;100809.56;4998838;28;20041;-81
2022/11/15 00:13:28;;;;;;;63.90;33.13;;;;;;;4.76;100.00;100811.31;5000113;28;20045;-79
2022/11/15 00:16:00;;;;;;;62.37;30.13;;;;;;;4.79;100.00;100798.22;4994798;28;20042;-79
2022/11/15 00:18:28;;;;;;;59.50;30.60;;;;;;;4.78;100.00;100801.72;5024611;28;20064;-79
2022/11/15 00:20:55;;;;;;;63.07;32.97;;;;;;;4.91;100.00;100800.94;4992460;28;20048;-79
2022/11/15 00:23:23;;;;;;;66.10;30.50;;;;;;;4.83;100.00;100792.16;4996314;28;20638;-79
2022/11/15 00:25:57;;;;;;;63.97;32.57;;;;;;;4.71;100.00;100792.13;4996435;28;20042;-79
2022/11/15 00:28:24;;;;;;;60.95;30.95;;;;;;;4.75;100.00;100793.88;5016338;28;20041;-79
2022/11/15 00:30:51;;;;;;;62.67;31.27;;;;;;;4.77;100.00;100793.00;5015919;28;20037;-79
2022/11/15 00:33:18;;;;;;;60.27;30.17;;;;;;;4.87;100.00;100780.81;5033707;28;20041;-79
2022/11/15 00:35:45;;;;;;;66.93;31.00;;;;;;;4.88;100.00;100779.97;5000351;28;20099;-79
2022/11/15 00:38:11;;;;;;;57.87;29.50;;;;;;;4.93;100.00;100769.50;4999689;28;20044;-79
2022/11/15 00:40:38;;;;;;;62.43;32.83;;;;;;;4.90;100.00;100767.78;4999633;28;20068;-79
2022/11/15 00:43:05;;;;;;;53.43;28.57;;;;;;;4.76;100.00;100772.06;5002187;28;20573;-81
2022/11/15 00:45:31;;;;;;;63.40;32.23;;;;;;;4.89;100.00;100763.41;5014386;28;20068;-81
2022/11/15 00:47:59;;;;;;;60.13;30.67;;;;;;;4.85;100.00;100752.91;5018211;28;20033;-81
2022/11/15 00:50:26;;;;;;;63.17;31.47;;;;;;;4.99;100.00;100759.06;5108650;22;20047;-85
2022/11/15 00:52:52;;;;;;;59.27;29.43;;;;;;;4.92;100.00;100766.03;5102292;27;20042;-84
2022/11/15 00:55:19;;;;;;;64.40;30.50;;;;;;;4.86;100.00;100765.13;5075622;27;20035;-84
2022/11/15 00:57:46;;;;;;;64.80;32.20;;;;;;;4.77;100.00;100763.34;5095197;27;20050;-82
2022/11/15 01:00:13;;;;;;;58.20;30.77;;;;;;;4.70;100.00;100762.41;5093820;28;20040;-84
2022/11/15 01:02:39;;;;;;;63.10;31.23;;;;;;;4.72;100.00;100755.47;5077107;28;20074;-84
2022/11/15 01:05:07;;;;;;;64.40;30.93;;;;;;;4.75;100.00;100747.63;5060384;28;20035;-84
2022/11/15 01:07:34;;;;;;;60.30;29.97;;;;;;;4.84;100.00;100724.97;5060430;28;20044;-84
2022/11/15 01:10:01;;;;;;;63.73;31.83;;;;;;;4.69;100.00;100739.75;5061316;28;20044;-84
2022/11/15 01:12:27;;;;;;;69.03;30.80;;;;;;;4.74;100.00;100745.88;5093007;28;20057;-84
2022/11/15 01:14:54;;;;;;;66.27;32.57;;;;;;;4.72;100.00;100745.00;5078430;28;20072;-84
2022/11/15 01:17:21;;;;;;;66.27;31.30;;;;;;;4.78;100.00;100733.66;5094059;28;20043;-84
2022/11/15 01:19:47;;;;;;;63.17;31.27;;;;;;;4.70;100.00;100736.25;5078154;28;20475;-84
2022/11/15 01:22:14;;;;;;;60.47;30.00;;;;;;;4.72;100.00;100726.69;5094195;28;20051;-84
2022/11/15 01:24:41;;;;;;;63.87;30.77;;;;;;;4.76;100.00;100728.44;5094677;28;20519;-84
2022/11/15 01:27:08;;;;;;;68.07;32.57;;;;;;;4.88;100.00;100725.00;5076506;28;20046;-84
2022/11/15 01:29:34;;;;;;;56.93;28.63;;;;;;;4.77;100.00;100719.72;5061244;28;20488;-84
2022/11/15 01:32:01;;;;;;;60.90;29.20;;;;;;;4.69;100.00;100725.78;5077516;28;20050;-84
2022/11/15 01:34:28;;;;;;;61.23;32.10;;;;;;;4.73;100.00;100717.09;5094892;28;20069;-85
2022/11/15 01:36:54;;;;;;;63.57;30.93;;;;;;;4.76;100.00;100709.25;5077998;28;20058;-85
2022/11/15 01:39:21;;;;;;;63.23;33.30;;;;;;;4.75;100.00;100720.59;5060878;28;20032;-84
2022/11/15 01:41:48;;;;;;;60.60;30.67;;;;;;;4.68;100.00;100713.56;5060048;28;20042;-85
2022/11/15 01:44:33;;;;;;;64.53;30.50;;;;;;;4.64;100.00;100703.97;5076179;28;20035;-85
2022/11/15 01:47:03;;;;;;;63.77;32.33;;;;;;;4.69;100.00;100700.47;5091865;28;20046;-85
2022/11/15 01:49:32;;;;;;;59.10;32.00;;;;;;;4.72;100.00;100694.41;5074743;28;20561;-84
2022/11/15 01:52:01;;;;;;;61.30;30.77;;;;;;;4.75;100.00;100686.56;5057800;28;20098;-85
2022/11/15 01:54:27;;;;;;;58.83;29.57;;;;;;;4.69;100.00;100704.84;5076806;28;20044;-85
2022/11/15 01:57:07;;;;;;;58.30;27.40;;;;;;;4.57;100.00;100703.06;5077712;28;20054;-86
2022/11/15 01:59:34;;;;;;;56.97;29.10;;;;;;;4.63;100.00;100707.47;5094690;28;20101;-85
2022/11/15 02:02:00;;;;;;;58.67;30.20;;;;;;;4.58;100.00;100706.56;5095401;28;20454;-85
2022/11/15 02:04:53;;;;;;;55.73;30.30;;;;;;;4.57;100.00;100703.06;5077892;28;20043;-85
2022/11/15 02:07:21;;;;;;;61.30;29.70;;;;;;;4.45;100.00;100700.38;5075754;28;20074;-85
2022/11/15 02:09:48;;;;;;;60.73;29.13;;;;;;;4.47;100.00;100698.66;5057787;28;20059;-86
2022/11/15 02:12:19;;;;;;;60.73;29.40;;;;;;;4.48;100.00;100698.66;5061985;28;20105;-85
2022/11/15 02:14:49;;;;;;;59.83;31.23;;;;;;;4.47;100.00;100689.06;5073737;28;20051;-86
2022/11/15 02:17:26;;;;;;;61.50;30.97;;;;;;;4.38;100.00;100686.41;5060665;28;20039;-85
2022/11/15 02:20:10;;;;;;;54.13;27.33;;;;;;;4.37;100.00;100679.44;5078306;28;20050;-84
2022/11/15 02:23:10;;;;;;;59.50;29.58;;;;;;;4.33;100.00;100682.88;5093645;28;20047;-84
2022/11/15 02:26:14;;;;;;;61.77;29.20;;;;;;;4.32;100.00;100675.91;5094958;28;20047;-85
2022/11/15 02:28:44;;;;;;;57.00;28.70;;;;;;;4.34;100.00;100671.56;5091605;28;20043;-85
2022/11/15 02:31:11;;;;;;;60.53;28.77;;;;;;;4.29;100.00;100672.38;5074622;28;20305;-85
2022/11/15 02:33:54;;;;;;;60.33;29.77;;;;;;;4.21;100.00;100668.03;5056735;28;20089;-85
2022/11/15 02:36:40;;;;;;;55.47;29.57;;;;;;;4.29;100.00;100665.44;5112651;28;20447;-84
2022/11/15 02:39:28;;;;;;;61.63;31.97;;;;;;;4.38;100.00;100660.25;5078482;28;20100;-85
2022/11/15 02:43:56;;;;;;;58.63;29.23;;;;;;;4.30;100.00;100664.56;5078612;28;20039;-85
2022/11/15 02:44:53;;;;;;;59.40;29.47;;;;;;;4.22;100.00;100661.03;5081466;28;20035;-84
2022/11/15 02:47:20;;;;;;;56.23;29.53;;;;;;;4.19;100.00;100663.63;5061541;28;20520;-85
2022/11/15 02:49:49;;;;;;;60.30;29.83;;;;;;;4.12;100.00;100667.06;5062140;28;20433;-85
2022/11/15 02:52:17;;;;;;;57.03;29.50;;;;;;;4.08;100.00;100666.19;5100975;28;20088;-85
2022/11/15 02:54:56;;;;;;;59.97;30.70;;;;;;;4.09;100.00;100657.47;5070150;28;20044;-85
2022/11/15 02:57:39;;;;;;;58.00;28.47;;;;;;;4.11;100.00;100662.69;5062877;28;20048;-85
2022/11/15 03:00:10;;;;;;;56.90;29.07;;;;;;;4.15;100.00;100665.34;5093962;28;20194;-85
2022/11/15 03:02:48;;;;;;;58.87;27.93;;;;;;;4.13;100.00;100659.25;5078237;28;20048;-85
2022/11/15 03:05:38;;;;;;;61.53;29.57;;;;;;;4.11;100.00;100649.63;5045388;28;20039;-86
2022/11/15 03:08:22;;;;;;;52.07;27.53;;;;;;;3.92;100.00;100651.25;5049914;28;20522;-86
2022/11/15 03:11:08;;;;;;;53.50;28.50;;;;;;;3.90;100.00;100645.16;5054491;28;20036;-85
2022/11/15 03:13:36;;;;;;;63.77;30.30;;;;;;;3.91;100.00;100650.41;5057887;28;20114;-84
2022/11/15 03:16:08;;;;;;;52.80;28.07;;;;;;;3.78;100.00;100638.09;5073948;28;20051;-85
2022/11/15 03:18:50;;;;;;;60.53;30.83;;;;;;;3.85;100.00;100649.47;5094440;28;20486;-85
2022/11/15 03:21:18;;;;;;;54.43;27.17;;;;;;;3.73;100.00;100639.81;5094751;28;20411;-84
2022/11/15 03:23:47;;;;;;;53.00;28.33;;;;;;;3.88;100.00;100637.31;5061667;28;20622;-85
2022/11/15 03:26:14;;;;;;;55.90;27.97;;;;;;;3.83;100.00;100640.75;5077246;28;20545;-86
2022/11/15 03:28:53;;;;;;;51.27;27.40;;;;;;;3.88;100.00;100639.06;5078388;28;20040;-85
2022/11/15 03:34:31;;;;;;;50.57;26.63;;;;;;;3.82;100.00;100634.66;5095815;28;20054;-86
2022/11/15 03:36:58;;;;;;;53.38;26.75;;;;;;;3.67;100.00;100642.38;5097964;28;20488;-84
2022/11/15 03:39:25;;;;;;;51.40;26.83;;;;;;;3.66;100.00;100645.88;5099021;28;20044;-85
2022/11/15 03:42:21;;;;;;;47.97;24.93;;;;;;;3.57;100.00;100645.81;5082574;28;20462;-84
2022/11/15 03:44:52;;;;;;;48.43;25.77;;;;;;;3.53;100.00;100650.13;5098099;28;20044;-84
2022/11/15 03:47:48;;;;;;;53.33;27.40;;;;;;;3.62;100.00;100644.09;5074042;28;20074;-85
2022/11/15 03:50:17;;;;;;;49.83;27.97;;;;;;;3.80;100.00;100636.41;5081773;28;20101;-84
2022/11/15 03:52:48;;;;;;;46.37;24.67;;;;;;;3.55;100.00;100631.88;5082037;28;20048;-85
2022/11/15 03:55:19;;;;;;;51.97;26.23;;;;;;;3.66;100.00;100635.41;5095524;28;20042;-85
2022/11/15 03:57:48;;;;;;;45.50;24.63;;;;;;;3.41;100.00;100638.69;5081372;28;20500;-84
2022/11/15 04:00:15;;;;;;;51.73;25.87;;;;;;;3.30;100.00;100636.00;5078030;28;20131;-84
2022/11/15 04:02:42;;;;;;;48.17;25.90;;;;;;;3.21;100.00;100631.59;5114543;27;20048;-84
2022/11/15 04:05:09;;;;;;;46.20;25.90;;;;;;;3.40;100.00;100627.38;5074605;28;20056;-84
2022/11/15 04:07:35;;;;;;;46.43;25.23;;;;;;;3.18;100.00;100636.75;5081898;28;20043;-85
2022/11/15 04:10:03;;;;;;;46.97;24.63;;;;;;;3.25;100.00;100635.09;5098816;28;20027;-85
2022/11/15 04:12:40;;;;;;;47.30;25.13;;;;;;;3.39;100.00;100634.34;5083097;28;20046;-85
2022/11/15 04:15:11;;;;;;;49.07;25.23;;;;;;;3.19;100.00;100633.28;5079463;28;20134;-84
2022/11/15 04:17:44;;;;;;;47.63;24.83;;;;;;;3.07;100.00;100635.78;5082912;28;20039;-85
2022/11/15 04:25:51;;;;;;;45.60;22.40;;;;;;;3.03;100.00;100637.50;5085724;28;20044;-84
2022/11/15 04:28:18;;;;;;;44.33;24.00;;;;;;;2.93;100.00;100640.88;5083140;28;20492;-83
2022/11/15 04:30:45;;;;;;;46.17;24.53;;;;;;;2.85;100.00;100639.03;5099836;28;20032;-84
2022/11/15 04:33:12;;;;;;;45.70;24.73;;;;;;;2.96;100.00;100638.31;5081191;28;20039;-85
2022/11/15 04:35:39;;;;;;;43.87;22.73;;;;;;;2.94;100.00;100641.75;5078211;28;20066;-85
2022/11/15 04:38:07;;;;;;;42.57;23.77;;;;;;;2.88;100.00;100642.56;5065387;28;20088;-85
2022/11/15 04:40:35;;;;;;;44.07;24.03;;;;;;;2.80;100.00;100634.66;5066009;28;20107;-85
2022/11/15 04:43:02;;;;;;;46.23;23.60;;;;;;;2.82;100.00;100637.28;5080145;28;20047;-84
2022/11/15 04:45:30;;;;;;;48.10;23.20;;;;;;;2.83;100.00;100637.28;5066737;28;20044;-85
2022/11/15 04:47:57;;;;;;;47.73;23.27;;;;;;;2.85;100.00;100631.22;5098795;28;20061;-84
2022/11/15 04:50:23;;;;;;;46.87;22.43;;;;;;;2.77;100.00;100637.22;5083741;28;20034;-84
2022/11/15 04:52:52;;;;;;;45.27;23.43;;;;;;;2.93;100.00;100633.03;5098062;28;20043;-85
2022/11/15 04:55:19;;;;;;;47.20;24.23;;;;;;;2.96;100.00;100629.59;5096946;28;20500;-84
2022/11/15 04:57:46;;;;;;;44.90;24.43;;;;;;;2.79;100.00;100627.69;5062559;28;20507;-84
2022/11/15 05:00:14;;;;;;;48.17;23.10;;;;;;;2.74;100.00;100625.88;5088704;28;20093;-85
2022/11/15 05:05:27;;;;;;;43.17;22.67;;;;;;;2.65;100.00;100623.19;5105894;28;20072;-84
2022/11/15 05:07:54;;;;;;;41.27;21.87;;;;;;;2.65;100.00;100620.56;5082797;28;20035;-84
2022/11/15 05:10:21;;;;;;;42.27;22.43;;;;;;;2.69;100.00;100631.06;5074271;28;20085;-84
2022/11/15 05:12:54;;;;;;;42.63;22.83;;;;;;;2.67;100.00;100627.56;5077033;28;20504;-84
2022/11/15 05:15:56;;;;;;;42.63;22.77;;;;;;;2.78;100.00;100625.06;5087014;28;20035;-86
2022/11/15 05:18:25;;;;;;;45.60;22.67;;;;;;;2.66;100.00;100622.31;5098468;28;20091;-85
2022/11/15 05:20:52;;;;;;;46.67;22.50;;;;;;;2.80;100.00;100620.75;5061097;28;20058;-86
2022/11/15 05:23:18;;;;;;;44.27;22.80;;;;;;;2.80;100.00;100623.34;5087805;28;20645;-86
2022/11/15 05:25:45;;;;;;;47.90;21.60;;;;;;;2.79;100.00;100634.66;5079156;28;20093;-86
2022/11/15 05:28:12;;;;;;;44.93;23.00;;;;;;;2.85;100.00;100631.22;5059237;28;20047;-85
2022/11/15 05:30:39;;;;;;;43.97;22.60;;;;;;;2.90;100.00;100627.81;5080420;28;20106;-85
2022/11/15 05:33:06;;;;;;;53.30;24.37;;;;;;;2.91;100.00;100626.06;5078653;28;20048;-85
2022/11/15 05:35:38;;;;;;;41.17;21.77;;;;;;;2.73;100.00;100632.84;5079872;28;20092;-86
2022/11/15 05:38:04;;;;;;;47.23;23.20;;;;;;;2.80;100.00;100636.41;5063618;28;20051;-85
2022/11/15 05:40:31;;;;;;;49.07;23.80;;;;;;;2.82;100.00;100626.84;5099553;28;20036;-85
2022/11/15 05:42:59;;;;;;;46.20;23.67;;;;;;;2.94;100.00;100636.53;5064765;28;20447;-85
2022/11/15 05:45:26;;;;;;;45.20;22.93;;;;;;;2.87;100.00;100635.59;5043251;28;20112;-85
2022/11/15 05:47:54;;;;;;;39.10;21.70;;;;;;;2.77;100.00;100628.50;5094163;28;20428;-85
2022/11/15 05:50:20;;;;;;;43.27;21.97;;;;;;;2.72;100.00;100625.00;5094829;28;20040;-85
2022/11/15 05:52:48;;;;;;;41.97;21.53;;;;;;;2.83;100.00;100621.63;5096762;28;20047;-85
2022/11/15 05:55:15;;;;;;;42.37;21.03;;;;;;;2.72;100.00;100625.00;5091605;28;20040;-86
2022/11/15 05:57:41;;;;;;;42.73;22.10;;;;;;;2.70;100.00;100626.72;5092099;28;20041;-85
2022/11/15 06:00:09;;;;;;;48.23;24.90;;;;;;;2.67;100.00;100627.56;5080003;28;20073;-86
2022/11/15 06:02:36;;;;;;;51.77;24.67;;;;;;;2.89;100.00;100627.78;5063985;28;20044;-85
2022/11/15 06:05:03;;;;;;;51.53;24.43;;;;;;;2.87;100.00;100625.16;5064079;28;20454;-85
2022/11/15 06:07:30;;;;;;;44.00;22.83;;;;;;;2.84;100.00;100630.34;5061798;28;20047;-85
2022/11/15 06:09:57;;;;;;;41.97;23.57;;;;;;;2.80;100.00;100629.44;5066147;28;20039;-86
2022/11/15 06:12:24;;;;;;;48.67;24.00;;;;;;;2.85;100.00;100632.09;5078742;28;20051;-86
2022/11/15 06:14:50;;;;;;;44.80;23.93;;;;;;;2.70;100.00;100622.38;5095924;28;20046;-86
2022/11/15 06:17:17;;;;;;;47.70;23.27;;;;;;;2.86;100.00;100631.25;5083505;28;20056;-86
2022/11/15 06:19:43;;;;;;;43.43;20.60;;;;;;;2.73;100.00;100635.44;5059518;28;20423;-84
2022/11/15 06:22:10;;;;;;;44.77;23.73;;;;;;;2.71;100.00;100631.97;5080407;28;20582;-85
2022/11/15 06:24:37;;;;;;;41.23;22.03;;;;;;;2.82;100.00;100640.75;5095611;28;20048;-85
2022/11/15 06:27:03;;;;;;;39.90;20.47;;;;;;;2.74;100.00;100638.94;5096041;28;20036;-86
2022/11/15 06:29:30;;;;;;;42.60;22.87;;;;;;;2.94;100.00;100641.75;5079219;28;20032;-85
2022/11/15 06:31:57;;;;;;;41.23;21.00;;;;;;;2.74;100.00;100645.03;5096780;28;20044;-86
2022/11/15 06:34:23;;;;;;;43.10;22.97;;;;;;;2.77;100.00;100633.72;5049994;28;20047;-86
2022/11/15 06:36:50;;;;;;;45.77;22.67;;;;;;;2.77;100.00;100645.03;5102154;28;20032;-85
2022/11/15 06:39:17;;;;;;;41.27;20.70;;;;;;;2.98;100.00;100641.81;5059028;28;20045;-85
2022/11/15 06:41:43;;;;;;;43.60;21.60;;;;;;;2.96;100.00;100650.47;5051425;28;20501;-85
2022/11/15 06:44:10;;;;;;;39.40;21.57;;;;;;;3.00;100.00;100657.47;5091855;28;20036;-85
2022/11/15 06:46:37;;;;;;;38.87;20.77;;;;;;;3.12;100.00;100648.91;5076436;28;20066;-85
2022/11/15 06:49:03;;;;;;;37.93;20.17;;;;;;;3.02;100.00;100647.91;5077011;28;20040;-85
2022/11/15 06:51:35;;;;;;;38.93;20.47;;;;;;;2.92;100.00;100654.78;5061826;28;20047;-85
2022/11/15 06:54:02;;;;;;;36.60;20.67;;;;;;;2.93;100.00;100661.75;5079546;28;20066;-86
2022/11/15 06:56:28;;;;;;;41.97;21.87;;;;;;;2.92;100.00;100661.72;5078510;28;20048;-85
2022/11/15 06:58:55;;;;;;;38.23;20.37;;;;;;;2.87;100.00;100663.44;5095555;28;20058;-85
2022/11/15 07:01:22;;;;;;;39.03;19.63;;;;;;;2.87;100.00;100658.22;5095040;28;20043;-86
2022/11/15 07:03:48;;;;;;;37.60;20.10;;;;;;;3.12;100.00;100656.72;5064421;28;20040;-85
2022/11/15 07:06:15;;;;;;;35.60;19.07;;;;;;;2.98;100.00;100672.25;5091294;28;20036;-85
2022/11/15 07:08:42;;;;;;;36.53;19.63;;;;;;;3.03;100.00;100662.75;5087226;28;20047;-85
2022/11/15 07:11:08;;;;;;;36.93;20.07;;;;;;;2.91;100.00;100663.47;5089895;28;20040;-86
2022/11/15 07:13:37;;;;;;;40.00;21.10;;;;;;;3.04;100.00;100667.09;5080888;28;20055;-85
2022/11/15 07:16:05;;;;;;;39.70;20.63;;;;;;;3.09;100.00;100662.78;5066415;28;20035;-85
2022/11/15 07:18:36;;;;;;;35.77;20.23;;;;;;;3.04;100.00;100665.34;5094247;28;20122;-85
2022/11/15 07:21:05;;;;;;;36.30;19.57;;;;;;;3.07;100.00;100661.91;5078272;28;20497;-85
2022/11/15 07:23:32;;;;;;;38.37;20.17;;;;;;;3.14;100.00;100663.72;5098640;28;20044;-85
2022/11/15 07:25:59;;;;;;;32.63;18.07;;;;;;;3.06;100.00;100667.97;5151176;22;20042;-82
2022/11/15 07:28:26;;;;;;;35.60;19.07;;;;;;;3.06;100.00;100660.16;5075283;28;20492;-81
2022/11/15 07:30:53;;;;;;;37.23;18.83;;;;;;;3.12;100.00;100667.19;5074670;28;20131;-81
2022/11/15 07:33:20;;;;;;;37.87;19.80;;;;;;;3.15;100.00;100664.59;5079515;28;20616;-82
2022/11/15 07:35:50;;;;;;;31.87;17.40;;;;;;;3.15;100.00;100664.59;5062947;28;20070;-81
2022/11/15 07:38:19;;;;;;;35.43;20.13;;;;;;;3.39;100.00;100673.53;5059458;28;20059;-81
2022/11/15 07:40:47;;;;;;;36.13;19.43;;;;;;;3.26;100.00;100670.78;5078057;28;20036;-81
2022/11/15 07:43:13;;;;;;;33.73;17.57;;;;;;;3.20;100.00;100669.00;5095390;28;20098;-83
2022/11/15 07:45:44;;;;;;;38.53;21.30;;;;;;;3.27;100.00;100668.16;5095692;28;20040;-80
2022/11/15 07:48:11;;;;;;;35.30;20.43;;;;;;;3.32;100.00;100674.31;5095146;28;20035;-81
2022/11/15 07:50:44;;;;;;;37.50;19.13;;;;;;;3.36;100.00;100676.13;5090425;28;20046;-80
2022/11/15 07:53:11;;;;;;;35.77;19.70;;;;;;;3.41;100.00;100673.53;5075969;28;20044;-80
2022/11/15 07:55:39;;;;;;;37.00;19.40;;;;;;;3.44;100.00;100675.28;5044113;28;20503;-80
2022/11/15 07:58:08;;;;;;;32.43;17.33;;;;;;;3.44;100.00;100670.06;5061822;28;20040;-81
2022/11/15 08:00:35;;;;;;;33.93;18.23;;;;;;;3.39;100.00;100667.41;5077067;28;20579;-80
2022/11/15 08:03:10;;;;;;;36.37;20.03;;;;;;;3.66;100.00;100666.78;5087140;28;20046;-80
2022/11/15 08:05:38;;;;;;;35.10;18.67;;;;;;;3.52;100.00;100660.53;5076734;28;20055;-80
2022/11/15 08:08:05;;;;;;;38.10;20.00;;;;;;;3.54;100.00;100669.28;5075830;28;20036;-80
2022/11/15 08:10:32;;;;;;;36.03;19.50;;;;;;;3.52;100.00;100666.66;5068701;28;20042;-81
2022/11/15 08:13:08;;;;;;;36.58;19.23;;;;;;;3.71;100.00;100664.19;5088997;28;20447;-80
2022/11/15 08:15:36;;;;;;;36.73;19.67;;;;;;;3.71;100.00;100657.25;5051179;28;20050;-78
2022/11/15 08:18:06;;;;;;;37.13;19.70;;;;;;;3.66;100.00;100666.78;5077561;28;20043;-80
2022/11/15 08:20:33;;;;;;;30.87;16.83;;;;;;;3.72;100.00;100669.44;5073021;28;20039;-80
2022/11/15 08:23:02;;;;;;;33.97;17.60;;;;;;;3.71;100.00;100670.31;5055877;28;20040;-80
2022/11/15 08:25:30;;;;;;;36.43;19.87;;;;;;;3.66;100.00;100658.94;5059878;28;20094;-80
2022/11/15 08:28:00;;;;;;;33.70;18.70;;;;;;;3.69;100.00;100661.56;5055325;28;20044;-80
2022/11/15 08:30:27;;;;;;;36.40;18.90;;;;;;;3.70;100.00;100655.50;5106031;28;20039;-80
2022/11/15 08:32:56;;;;;;;36.10;18.87;;;;;;;3.66;100.00;100658.94;5062362;28;20041;-81
2022/11/15 08:35:23;;;;;;;33.10;18.23;;;;;;;3.73;100.00;100650.28;5076143;28;20044;-80
2022/11/15 08:37:55;;;;;;;38.87;20.37;;;;;;;3.78;100.00;100645.94;5086433;28;20114;-80
2022/11/15 08:40:22;;;;;;;35.50;20.13;;;;;;;3.76;100.00;100645.06;5057970;28;20040;-80
2022/11/15 08:42:49;;;;;;;35.70;19.87;;;;;;;3.87;100.00;100645.16;5053712;28;20051;-81
2022/11/15 08:45:16;;;;;;;35.57;19.80;;;;;;;3.96;100.00;100639.97;5049578;28;20044;-81
2022/11/15 08:47:42;;;;;;;36.07;20.50;;;;;;;3.97;100.00;100636.50;5093965;28;20104;-79
2022/11/15 08:50:09;;;;;;;35.63;19.30;;;;;;;4.06;100.00;100648.75;5077617;28;20040;-81
2022/11/15 08:52:36;;;;;;;38.27;20.20;;;;;;;4.05;100.00;100644.41;5061298;28;20463;-81
2022/11/15 08:55:03;;;;;;;38.70;21.23;;;;;;;4.20;100.00;100642.75;5074428;28;20053;-81
2022/11/15 08:57:32;;;;;;;36.73;20.47;;;;;;;4.25;100.00;100637.50;5058611;28;20044;-81
2022/11/15 08:59:59;;;;;;;36.70;19.50;;;;;;;4.34;100.00;100645.41;5049664;28;20042;-80
2022/11/15 09:02:25;;;;;;;34.63;19.83;;;;;;;4.39;100.00;100643.69;5053096;28;20043;-81
2022/11/15 09:04:52;;;;;;;43.17;22.50;;;;;;;4.58;100.00;100644.63;5073239;28;20040;-81
2022/11/15 09:07:19;;;;;;;36.10;21.00;;;;;;;4.52;100.00;100641.97;5076228;28;20039;-81
2022/11/15 09:09:46;;;;;;;33.70;18.00;;;;;;;4.61;100.00;100638.53;5083496;28;20036;-81
2022/11/15 09:12:12;;;;;;;30.97;19.03;;;;;;;4.65;100.00;100641.16;5077711;28;20496;-81
2022/11/15 09:14:39;;;;;;;40.47;21.57;;;;;;;4.60;100.00;100644.63;5069615;28;20051;-81
2022/11/15 09:17:08;;;;;;;36.93;20.33;;;;;;;4.67;100.00;100639.44;5077855;28;20043;-80
2022/11/15 09:19:35;;;;;;;34.00;19.23;;;;;;;4.75;100.00;100644.69;5061780;28;20047;-80
2022/11/15 09:22:01;;;;;;;30.97;18.33;;;;;;;4.78;100.00;100647.31;5061130;28;20035;-80
2022/11/15 09:24:28;;;;;;;35.80;21.13;;;;;;;4.71;100.00;100648.19;5060854;28;20393;-81
2022/11/15 09:26:54;;;;;;;40.27;21.23;;;;;;;4.87;100.00;100643.84;5064500;28;20526;-80
2022/11/15 09:29:21;;;;;;;39.70;21.90;;;;;;;5.05;100.00;100649.13;5056031;28;20064;-81
2022/11/15 09:31:48;;;;;;;38.40;21.63;;;;;;;4.99;100.00;100646.50;5077165;28;20552;-80
2022/11/15 09:34:15;;;;;;;40.20;22.57;;;;;;;5.09;100.00;100656.09;5061510;28;20047;-80
2022/11/15 09:36:41;;;;;;;35.43;20.13;;;;;;;5.27;100.00;100652.63;5075967;28;20566;-81
2022/11/15 09:39:09;;;;;;;38.67;20.70;;;;;;;5.33;100.00;100657.88;5077318;28;20047;-80
2022/11/15 09:41:57;;;;;;;34.47;21.77;;;;;;;5.34;100.00;100654.41;5078143;28;20089;-80
2022/11/15 09:44:48;;;;;;;35.40;19.77;;;;;;;5.47;100.00;100657.91;5073820;28;20420;-81
2022/11/15 09:47:35;;;;;;;41.07;21.67;;;;;;;5.67;100.00;100655.28;5091645;28;20048;-80
2022/11/15 09:50:09;;;;;;;38.30;20.47;;;;;;;5.84;100.00;100666.63;5073975;28;20040;-81
2022/11/15 09:52:36;;;;;;;36.03;22.10;;;;;;;6.08;100.00;100643.00;5040446;28;20047;-80
2022/11/15 09:55:05;;;;;;;31.70;19.13;;;;;;;5.94;100.00;100639.53;5056684;28;20064;-81
2022/11/15 09:57:34;;;;;;;39.90;22.30;;;;;;;6.00;100.00;100634.28;5088142;28;20039;-80
2022/11/15 10:00:25;;;;;;;33.10;18.83;;;;;;;6.20;100.00;100637.72;5109873;28;20035;-80
2022/11/15 10:03:17;;;;;;;37.97;20.77;;;;;;;6.29;100.00;100634.19;5096576;28;20463;-80
2022/11/15 10:05:46;;;;;;;34.07;20.50;;;;;;;6.36;100.00;100632.41;5093952;28;20051;-79
2022/11/15 10:08:37;;;;;;;38.40;20.33;;;;;;;6.53;100.00;100630.59;5093369;28;20043;-80
2022/11/15 10:11:09;;;;;;;36.20;20.73;;;;;;;6.76;100.00;100623.50;5060377;28;20046;-80
2022/11/15 10:14:00;;;;;;;37.07;20.30;;;;;;;6.90;100.00;100618.16;5082489;28;20492;-81
2022/11/15 10:16:49;;;;;;;36.17;20.07;;;;;;;6.90;100.00;100623.41;5090375;28;20040;-81
2022/11/15 10:19:25;;;;;;;31.43;19.53;;;;;;;7.02;100.00;100620.69;5056225;28;20044;-79
2022/11/15 10:21:58;;;;;;;31.40;19.10;;;;;;;7.28;100.00;100612.63;5069447;28;20047;-81
2022/11/15 10:24:30;;;;;;;28.87;18.23;;;;;;;7.31;100.00;100607.38;5092734;28;20089;-81
2022/11/15 10:26:57;;;;;;;29.03;17.30;;;;;;;7.50;100.00;100605.44;5075351;28;20109;-81
2022/11/15 10:29:25;;;;;;;31.47;19.13;;;;;;;7.74;100.00;100591.22;5073594;28;20466;-81
2022/11/15 10:31:52;;;;;;;29.17;17.63;;;;;;;8.09;100.00;100601.34;5092829;28;20042;-81
2022/11/15 10:34:21;;;;;;;31.93;18.17;;;;;;;7.97;100.00;100588.31;5067263;28;20040;-81
2022/11/15 10:36:55;;;;;;;30.00;17.37;;;;;;;8.18;100.00;100587.22;5065105;28;20109;-81
2022/11/15 10:39:23;;;;;;;25.13;16.85;;;;;;;8.45;100.00;100586.03;5081523;28;20093;-81
2022/11/15 10:41:50;;;;;;;26.02;15.10;;;;;;;8.59;100.00;100578.81;5079723;28;20481;-82
2022/11/15 10:44:16;;;;;;;26.10;16.38;;;;;;;8.70;100.00;100576.91;5065072;28;20052;-82
2022/11/15 10:46:47;;;;;;;21.98;14.18;;;;;;;8.94;100.00;100569.53;5075712;28;20416;-82
2022/11/15 10:49:21;;;;;;;26.33;16.02;;;;;;;9.10;100.00;100570.19;5079907;27;20047;-82
2022/11/15 10:51:53;;;;;;;21.65;15.00;;;;;;;9.09;100.00;100566.66;5083076;28;20047;-81
2022/11/15 10:54:58;;;;;;;22.75;15.82;;;;;;;9.27;100.00;100550.56;5061819;28;20496;-82
2022/11/15 10:57:31;;;;;;;22.27;15.35;;;;;;;9.39;100.00;100554.72;5003406;28;20037;-82
2022/11/15 11:00:05;;;;;;;24.83;15.05;;;;;;;9.37;100.00;100555.66;4998213;28;20239;-82
2022/11/15 11:02:54;;;;;;;19.45;13.00;;;;;;;9.55;100.00;100555.34;5053719;28;20052;-81
2022/11/15 11:05:36;;;;;;;21.02;13.60;;;;;;;9.66;100.00;100552.50;5111303;28;20067;-82
2022/11/15 11:08:14;;;;;;;23.60;14.73;;;;;;;9.91;100.00;100540.56;5081391;28;20054;-82
2022/11/15 11:10:55;;;;;;;21.77;13.60;;;;;;;9.98;100.00;100541.34;5080209;28;20535;-81
2022/11/15 11:13:33;;;;;;;19.83;13.00;;;;;;;9.94;100.00;100534.38;5065509;28;20044;-81
2022/11/15 11:16:19;;;;;;;17.27;11.65;;;;;;;10.08;100.00;100532.31;5067520;28;20038;-82
2022/11/15 11:19:01;;;;;;;21.02;12.63;;;;;;;10.18;100.00;100533.03;5079712;28;20074;-82
2022/11/15 11:21:56;;;;;;;20.73;13.40;;;;;;;10.26;100.00;100533.78;5096788;28;20043;-81
2022/11/15 11:24:36;;;;;;;19.40;13.20;;;;;;;10.02;100.00;100527.19;5096499;28;20054;-81
2022/11/15 11:27:22;;;;;;;18.15;11.68;;;;;;;10.23;100.00;100537.31;5079301;28;20035;-82
2022/11/15 11:29:59;;;;;;;17.60;11.95;;;;;;;10.36;100.00;100530.88;5075792;28;20531;-81
2022/11/15 11:32:40;;;;;;;18.38;12.98;;;;;;;10.39;100.00;100528.16;5093970;28;20127;-85
2022/11/15 11:35:26;;;;;;;20.73;13.77;;;;;;;10.11;100.00;100527.00;5075485;28;20044;-82
2022/11/15 11:38:27;;;;;;;16.98;11.57;;;;;;;10.15;100.00;100526.00;5076742;28;20071;-84